Time;durP1;ratioP1;P1;durP2;ratioP2;P2;SDS_P1;SDS_P2;PMS_P1;PMS_P2;Temp;Humidity;BMP_temperature;BMP_pressure;BME280_temperature;BME280_humidity;BME280_pressure;Samples;Min_cycle;Max_cycle;Signal;HPM_P1;HPM_P2
2023/11/01 00:02:09;;;;;;;3.87;1.93;;;10.40;1.00;;;;;;5076157;28;20527;-39
2023/11/01 00:04:35;;;;;;;3.50;1.70;;;10.50;1.00;;;;;;5076470;28;20189;-40
2023/11/01 00:07:01;;;;;;;2.63;1.50;;;10.40;1.00;;;;;;5077455;28;20275;-39
2023/11/01 00:09:26;;;;;;;1.43;1.20;;;10.40;1.00;;;;;;5077202;28;20177;-41
2023/11/01 00:11:52;;;;;;;2.00;1.80;;;10.40;1.00;;;;;;5077317;28;20216;-40
2023/11/01 00:14:18;;;;;;;1.50;1.40;;;10.40;1.00;;;;;;5076023;28;20209;-38
2023/11/01 00:16:43;;;;;;;3.03;1.40;;;10.40;1.00;;;;;;5074609;28;20213;-39
2023/11/01 00:19:09;;;;;;;4.00;1.53;;;10.40;1.00;;;;;;5075695;28;20185;-40
2023/11/01 00:21:34;;;;;;;2.83;1.40;;;10.40;1.00;;;;;;5075469;28;20177;-39
2023/11/01 00:24:00;;;;;;;2.63;1.70;;;10.40;1.00;;;;;;5075283;28;20236;-39
2023/11/01 00:26:26;;;;;;;3.90;2.17;;;10.40;1.00;;;;;;5076943;28;20196;-38
2023/11/01 00:28:52;;;;;;;2.40;1.93;;;10.40;1.00;;;;;;5077961;28;20556;-37
2023/11/01 00:31:17;;;;;;;1.63;1.30;;;10.40;1.00;;;;;;5076505;28;20204;-39
2023/11/01 00:33:43;;;;;;;1.77;1.27;;;10.40;1.00;;;;;;5077137;28;20315;-41
2023/11/01 00:36:09;;;;;;;2.37;1.30;;;10.40;1.00;;;;;;5076604;28;20227;-40
2023/11/01 00:38:35;;;;;;;1.43;1.20;;;10.40;1.00;;;;;;5077622;28;20423;-39
2023/11/01 00:41:02;;;;;;;4.00;1.87;;;10.40;1.00;;;;;;5077086;28;20431;-39
2023/11/01 00:43:29;;;;;;;3.60;1.40;;;10.40;1.00;;;;;;5077068;28;20702;-39
2023/11/01 00:45:55;;;;;;;1.97;1.13;;;10.40;1.00;;;;;;5077529;28;20419;-40
2023/11/01 00:48:20;;;;;;;3.00;1.37;;;10.40;1.00;;;;;;5078108;28;20716;-39
2023/11/01 00:50:46;;;;;;;3.53;1.10;;;10.40;1.00;;;;;;5077556;28;20193;-42
2023/11/01 00:53:12;;;;;;;5.00;1.87;;;10.40;1.00;;;;;;5077092;28;20625;-40
2023/11/01 00:55:38;;;;;;;3.27;1.27;;;10.40;1.00;;;;;;5077364;28;20178;-40
2023/11/01 00:58:03;;;;;;;2.23;1.23;;;10.50;1.00;;;;;;5074972;28;20173;-40
2023/11/01 01:00:29;;;;;;;4.23;1.30;;;10.50;1.00;;;;;;5074656;28;20188;-40
2023/11/01 01:02:54;;;;;;;2.73;1.10;;;10.50;1.00;;;;;;5075775;28;20181;-43
2023/11/01 01:05:21;;;;;;;3.13;1.23;;;10.50;1.00;;;;;;5077049;28;20191;-40
2023/11/01 01:07:47;;;;;;;3.37;1.33;;;10.50;1.00;;;;;;5074324;28;20181;-39
2023/11/01 01:10:12;;;;;;;2.73;1.30;;;10.50;1.00;;;;;;5056053;28;20438;-39
2023/11/01 01:12:38;;;;;;;1.70;1.00;;;10.50;1.00;;;;;;5075238;28;20441;-37
2023/11/01 01:15:05;;;;;;;5.57;1.43;;;10.50;1.00;;;;;;5075680;28;20271;-40
2023/11/01 01:17:31;;;;;;;4.20;1.40;;;10.50;1.00;;;;;;5073825;28;20328;-40
2023/11/01 01:19:56;;;;;;;5.87;1.50;;;10.50;1.00;;;;;;5074182;28;20751;-39
2023/11/01 01:22:22;;;;;;;2.30;1.30;;;10.50;1.00;;;;;;5074466;28;20675;-40
2023/11/01 01:24:47;;;;;;;7.47;1.50;;;10.50;1.00;;;;;;5074533;28;20237;-38
2023/11/01 01:27:13;;;;;;;4.27;1.63;;;10.50;1.00;;;;;;5074786;28;20181;-40
2023/11/01 01:29:39;;;;;;;3.07;1.20;;;10.50;1.00;;;;;;5075762;28;20189;-38
2023/11/01 01:32:05;;;;;;;4.43;1.47;;;10.50;1.00;;;;;;5073669;28;20185;-39
2023/11/01 01:34:30;;;;;;;3.20;1.37;;;10.50;1.00;;;;;;5074562;28;20227;-43
2023/11/01 01:36:56;;;;;;;1.80;1.20;;;10.50;1.00;;;;;;5064128;28;20425;-38
2023/11/01 01:39:22;;;;;;;2.87;1.10;;;10.40;1.00;;;;;;5056312;28;20173;-39
2023/11/01 01:41:47;;;;;;;5.00;1.40;;;10.40;1.00;;;;;;5055490;28;20194;-36
2023/11/01 01:44:13;;;;;;;7.47;1.40;;;10.40;1.00;;;;;;5053942;28;20309;-40
2023/11/01 01:46:39;;;;;;;3.90;1.30;;;10.40;1.00;;;;;;5055884;28;20259;-37
2023/11/01 01:49:05;;;;;;;1.90;1.00;;;10.40;1.00;;;;;;5038866;28;20424;-38
2023/11/01 01:51:31;;;;;;;3.60;1.40;;;10.40;1.00;;;;;;5055640;28;20221;-39
2023/11/01 01:53:57;;;;;;;3.50;1.13;;;10.40;1.00;;;;;;5034347;28;20230;-39
2023/11/01 01:56:24;;;;;;;3.07;1.63;;;10.40;1.00;;;;;;5019549;28;20244;-40
2023/11/01 01:58:51;;;;;;;4.77;1.90;;;10.40;1.00;;;;;;5035989;28;20434;-39
2023/11/01 02:01:18;;;;;;;3.73;1.10;;;10.40;1.00;;;;;;5035511;28;20429;-39
2023/11/01 02:03:44;;;;;;;2.63;1.37;;;10.40;1.00;;;;;;5035765;28;20413;-39
2023/11/01 02:06:10;;;;;;;3.00;1.40;;;10.30;1.00;;;;;;5035089;28;20648;-38
2023/11/01 02:08:38;;;;;;;2.63;1.50;;;10.30;1.00;;;;;;5033435;28;20182;-42
2023/11/01 02:11:04;;;;;;;2.43;1.30;;;10.30;1.00;;;;;;5034894;28;20195;-38
2023/11/01 02:13:31;;;;;;;3.00;1.43;;;10.30;1.00;;;;;;5034728;28;20747;-38
2023/11/01 02:15:56;;;;;;;1.70;1.33;;;10.30;1.00;;;;;;5036011;28;20421;-41
2023/11/01 02:18:22;;;;;;;1.50;1.23;;;10.30;1.00;;;;;;5033958;28;20429;-38
2023/11/01 02:20:48;;;;;;;3.63;1.40;;;10.30;1.00;;;;;;5034124;28;20197;-40
2023/11/01 02:23:15;;;;;;;3.23;1.40;;;10.30;1.00;;;;;;5034890;28;20549;-37
2023/11/01 02:25:41;;;;;;;2.40;1.20;;;10.30;1.00;;;;;;5034513;28;20429;-37
2023/11/01 02:28:09;;;;;;;3.20;1.30;;;10.20;1.00;;;;;;5035116;28;20425;-37
2023/11/01 02:30:35;;;;;;;1.97;1.20;;;10.20;1.00;;;;;;5016092;28;20835;-39
2023/11/01 02:33:00;;;;;;;2.13;1.20;;;10.20;1.00;;;;;;5033240;28;20507;-41
2023/11/01 02:35:26;;;;;;;2.00;1.37;;;10.20;1.00;;;;;;5032918;28;20200;-38
2023/11/01 02:37:51;;;;;;;2.57;1.30;;;10.20;1.00;;;;;;5032367;28;20238;-38
2023/11/01 02:40:18;;;;;;;3.80;1.60;;;10.20;1.00;;;;;;5033415;28;20216;-41
2023/11/01 02:42:55;;;;;;;6.07;1.80;;;10.20;1.00;;;;;;5034403;28;20272;-42
2023/11/01 02:45:21;;;;;;;3.27;1.43;;;10.20;1.00;;;;;;5037309;28;20467;-39
2023/11/01 02:47:46;;;;;;;2.53;1.50;;;10.20;1.00;;;;;;5035865;28;20460;-38
2023/11/01 02:50:15;;;;;;;2.80;1.37;;;10.10;1.00;;;;;;5037243;28;20472;-38
2023/11/01 02:52:40;;;;;;;4.17;1.60;;;10.10;1.00;;;;;;5043692;28;20241;-40
2023/11/01 02:55:11;;;;;;;2.00;1.43;;;10.10;1.00;;;;;;5057041;28;20490;-40
2023/11/01 02:57:37;;;;;;;2.83;1.63;;;10.10;1.00;;;;;;5057285;28;20280;-39
2023/11/01 03:00:08;;;;;;;2.73;1.43;;;10.10;1.00;;;;;;5058785;28;20501;-38
2023/11/01 03:02:37;;;;;;;6.00;1.60;;;10.10;1.00;;;;;;5058166;28;20431;-41
2023/11/01 03:05:04;;;;;;;5.90;2.20;;;10.10;1.00;;;;;;5057526;28;20432;-37
2023/11/01 03:07:30;;;;;;;4.20;1.40;;;10.10;1.00;;;;;;5057622;28;20428;-37
2023/11/01 03:09:56;;;;;;;2.20;1.43;;;10.10;1.00;;;;;;5058031;28;20435;-38
2023/11/01 03:12:22;;;;;;;3.70;1.80;;;10.10;1.00;;;;;;5056990;28;20206;-40
2023/11/01 03:14:47;;;;;;;7.47;1.47;;;10.10;1.00;;;;;;5056411;28;20515;-38
2023/11/01 03:17:13;;;;;;;3.30;1.50;;;10.10;1.00;;;;;;5056922;28;20207;-39
2023/11/01 03:19:39;;;;;;;2.13;1.63;;;10.10;1.00;;;;;;5056269;28;20194;-41
2023/11/01 03:22:05;;;;;;;1.97;1.30;;;10.10;1.00;;;;;;5040794;28;20782;-37
2023/11/01 03:24:31;;;;;;;2.03;1.20;;;10.10;1.00;;;;;;5039926;28;20185;-37
2023/11/01 03:26:57;;;;;;;3.40;1.40;;;10.10;1.00;;;;;;5057171;28;20514;-39
2023/11/01 03:30:16;;;;;;;4.90;1.43;;;10.10;1.00;;;;;;5059004;28;20455;-38
2023/11/01 03:32:41;;;;;;;3.80;1.60;;;10.10;1.00;;;;;;5057443;28;20474;-39
2023/11/01 03:35:07;;;;;;;2.50;1.23;;;10.10;1.00;;;;;;5040566;28;20514;-40
2023/11/01 03:37:33;;;;;;;1.63;1.20;;;10.00;1.00;;;;;;5057888;28;20186;-40
2023/11/01 03:39:58;;;;;;;2.33;1.40;;;10.00;1.00;;;;;;5058739;28;20773;-39
2023/11/01 03:42:24;;;;;;;2.77;1.73;;;10.00;1.00;;;;;;5058476;28;20185;-38
2023/11/01 03:44:49;;;;;;;3.53;1.13;;;10.00;1.00;;;;;;5059408;28;20205;-38
2023/11/01 03:47:15;;;;;;;3.40;2.03;;;10.00;1.00;;;;;;5058504;28;20190;-39
2023/11/01 03:49:41;;;;;;;6.47;1.70;;;10.00;1.00;;;;;;5040621;28;20190;-40
2023/11/01 03:52:06;;;;;;;2.33;1.40;;;9.90;1.00;;;;;;5060162;28;20222;-39
2023/11/01 03:54:33;;;;;;;3.30;1.40;;;9.90;1.00;;;;;;5059172;28;20453;-38
2023/11/01 03:56:59;;;;;;;2.30;1.40;;;9.90;1.00;;;;;;5041883;28;20252;-38
2023/11/01 03:59:25;;;;;;;3.10;1.67;;;9.90;1.00;;;;;;5059687;28;20536;-39
2023/11/01 04:01:51;;;;;;;2.97;1.83;;;9.90;1.00;;;;;;5058092;28;20594;-38
2023/11/01 04:04:16;;;;;;;3.17;1.30;;;9.80;1.00;;;;;;5057381;28;20277;-38
2023/11/01 04:06:42;;;;;;;4.37;1.33;;;9.80;1.00;;;;;;5059523;28;20196;-38
2023/11/01 04:09:08;;;;;;;4.53;1.23;;;9.80;1.00;;;;;;5058861;28;20479;-38
2023/11/01 04:11:34;;;;;;;2.00;1.30;;;9.80;1.00;;;;;;5057464;28;20424;-38
2023/11/01 04:14:00;;;;;;;1.90;1.10;;;9.80;1.00;;;;;;5057772;28;20646;-39
2023/11/01 04:16:25;;;;;;;2.80;1.43;;;9.80;1.00;;;;;;5058843;28;20202;-38
2023/11/01 04:18:51;;;;;;;2.47;1.50;;;9.70;99.90;;;;;;5058323;28;20447;-41
2023/11/01 04:21:17;;;;;;;2.67;1.20;;;9.70;1.00;;;;;;5057677;28;20186;-39
2023/11/01 04:23:42;;;;;;;2.53;1.20;;;9.70;1.00;;;;;;5055459;28;20504;-39
2023/11/01 04:26:08;;;;;;;4.10;1.30;;;9.60;1.00;;;;;;5058385;28;20197;-40
2023/11/01 04:28:34;;;;;;;4.20;1.80;;;9.60;1.00;;;;;;5058726;28;20182;-39
2023/11/01 04:31:00;;;;;;;2.33;1.53;;;9.60;1.00;;;;;;5058115;28;20436;-40
2023/11/01 04:33:26;;;;;;;2.63;1.37;;;9.60;1.00;;;;;;5057670;28;20936;-39
2023/11/01 04:35:53;;;;;;;3.20;1.20;;;9.50;1.00;;;;;;5056745;28;20613;-41
2023/11/01 04:38:20;;;;;;;1.70;1.23;;;9.50;1.00;;;;;;5057177;28;20181;-39
2023/11/01 04:40:45;;;;;;;1.63;1.30;;;9.50;1.00;;;;;;5039920;28;20698;-37
2023/11/01 04:43:11;;;;;;;2.80;1.30;;;9.50;1.00;;;;;;5056059;28;20432;-41
2023/11/01 04:45:37;;;;;;;3.80;1.80;;;9.50;1.00;;;;;;5056831;28;20277;-37
2023/11/01 04:48:03;;;;;;;3.97;1.10;;;9.50;1.00;;;;;;5055869;28;20431;-37
2023/11/01 04:50:28;;;;;;;1.97;1.10;;;9.50;1.00;;;;;;5056102;28;20368;-39
2023/11/01 04:52:54;;;;;;;3.30;2.07;;;9.50;1.00;;;;;;5055491;28;20515;-38
2023/11/01 04:55:20;;;;;;;3.50;1.50;;;9.50;1.00;;;;;;5055765;28;20209;-38
2023/11/01 04:57:45;;;;;;;2.43;1.20;;;9.50;1.00;;;;;;5036404;28;20588;-37
2023/11/01 05:00:15;;;;;;;3.10;1.50;;;9.50;1.00;;;;;;5054751;28;20575;-39
2023/11/01 05:02:47;;;;;;;1.93;1.20;;;9.40;1.00;;;;;;5036966;28;20182;-39
2023/11/01 05:05:13;;;;;;;1.57;1.40;;;9.40;1.00;;;;;;5055335;28;20432;-38
2023/11/01 05:07:39;;;;;;;2.63;1.00;;;9.40;1.00;;;;;;5054209;28;20687;-36
2023/11/01 05:10:05;;;;;;;3.80;1.50;;;9.40;1.00;;;;;;5038844;28;20508;-37
2023/11/01 05:12:31;;;;;;;4.67;1.13;;;9.40;1.00;;;;;;5056595;28;20466;-37
2023/11/01 05:14:58;;;;;;;3.33;1.33;;;9.40;1.00;;;;;;5057202;28;20431;-38
2023/11/01 05:17:23;;;;;;;1.90;1.40;;;9.50;1.00;;;;;;5039450;28;20433;-38
2023/11/01 05:19:49;;;;;;;2.10;1.30;;;9.50;1.00;;;;;;5056831;28;20435;-42
2023/11/01 05:22:16;;;;;;;2.27;1.30;;;9.50;99.90;;;;;;5057219;28;20189;-39
2023/11/01 05:24:46;;;;;;;7.57;1.33;;;9.50;99.90;;;;;;5056762;28;20208;-39
2023/11/01 05:27:12;;;;;;;2.50;1.20;;;9.50;1.00;;;;;;5054959;28;20483;-37
2023/11/01 05:29:37;;;;;;;1.90;1.20;;;9.50;99.90;;;;;;5057045;28;20857;-40
2023/11/01 05:32:03;;;;;;;3.27;1.23;;;9.50;1.00;;;;;;5055982;28;20565;-37
2023/11/01 05:34:29;;;;;;;1.93;1.50;;;9.50;99.90;;;;;;5055088;28;20226;-40
2023/11/01 05:36:54;;;;;;;2.67;1.20;;;9.50;99.90;;;;;;5056227;28;20193;-38
2023/11/01 05:39:20;;;;;;;2.07;1.10;;;9.50;1.00;;;;;;5056228;28;20181;-37
2023/11/01 05:41:51;;;;;;;1.73;1.07;;;9.50;99.90;;;;;;5054662;28;20227;-38
2023/11/01 05:44:19;;;;;;;2.40;1.53;;;9.50;99.90;;;;;;5056087;28;20189;-41
2023/11/01 05:46:45;;;;;;;1.50;1.13;;;9.50;99.90;;;;;;5054871;28;20475;-40
2023/11/01 05:49:11;;;;;;;1.83;1.00;;;9.50;99.90;;;;;;5054044;28;20443;-41
2023/11/01 05:51:36;;;;;;;3.40;1.60;;;9.50;99.90;;;;;;5054753;28;20415;-38
2023/11/01 05:54:02;;;;;;;1.70;1.10;;;9.50;99.90;;;;;;5036549;28;20690;-39
2023/11/01 05:56:28;;;;;;;2.57;1.07;;;9.50;99.90;;;;;;5035065;28;20182;-39
2023/11/01 05:58:55;;;;;;;3.30;1.30;;;9.40;99.90;;;;;;5036216;28;20187;-39
2023/11/01 06:01:23;;;;;;;3.17;1.43;;;9.40;99.90;;;;;;5035468;28;20256;-41
2023/11/01 06:03:50;;;;;;;1.40;0.90;;;9.40;99.90;;;;;;5035912;28;20916;-38
2023/11/01 06:06:16;;;;;;;2.73;1.10;;;9.40;99.90;;;;;;5034953;28;20503;-38
2023/11/01 06:08:42;;;;;;;2.43;1.23;;;9.40;99.90;;;;;;5035217;28;20735;-40
2023/11/01 06:11:08;;;;;;;2.40;1.27;;;9.40;99.90;;;;;;5034086;28;20549;-39
2023/11/01 06:13:35;;;;;;;3.27;1.30;;;9.40;99.90;;;;;;5035184;28;20214;-39
2023/11/01 06:16:04;;;;;;;1.60;1.20;;;9.40;99.90;;;;;;5034354;28;20482;-38
2023/11/01 06:18:33;;;;;;;2.10;1.43;;;9.40;99.90;;;;;;5033234;28;20413;-38
2023/11/01 06:20:59;;;;;;;2.80;1.33;;;9.40;99.90;;;;;;5034521;28;20468;-40
2023/11/01 06:23:25;;;;;;;2.87;1.60;;;9.40;99.90;;;;;;5034256;28;20456;-39
2023/11/01 06:25:50;;;;;;;2.23;1.90;;;9.40;99.90;;;;;;5034143;28;20193;-38
2023/11/01 06:28:16;;;;;;;3.97;2.07;;;9.50;99.90;;;;;;5035065;28;20225;-39
2023/11/01 06:30:42;;;;;;;3.87;2.00;;;9.50;99.90;;;;;;5035586;28;20232;-37
2023/11/01 06:33:08;;;;;;;2.37;1.30;;;9.60;99.90;;;;;;5034380;28;20223;-39
2023/11/01 06:35:33;;;;;;;3.70;1.60;;;9.70;99.90;;;;;;5033832;28;20856;-41
2023/11/01 06:37:59;;;;;;;2.33;1.10;;;9.80;99.90;;;;;;5034747;28;20599;-39
2023/11/01 06:40:24;;;;;;;3.90;1.10;;;9.90;67.90;;;;;;5035360;28;20186;-39
2023/11/01 06:42:50;;;;;;;2.60;1.17;;;10.00;32.80;;;;;;5035766;28;20273;-37
2023/11/01 06:45:16;;;;;;;1.97;1.37;;;10.20;1.00;;;;;;5034700;28;20210;-42
2023/11/01 06:47:41;;;;;;;1.77;1.20;;;10.40;1.00;;;;;;5034761;28;20196;-40
2023/11/01 06:50:07;;;;;;;2.70;1.03;;;10.60;1.00;;;;;;5034015;28;20185;-38
2023/11/01 06:52:33;;;;;;;1.87;1.20;;;10.80;1.00;;;;;;5055995;28;20228;-37
2023/11/01 06:54:58;;;;;;;2.50;1.17;;;10.90;99.90;;;;;;5071239;28;20677;-41
2023/11/01 06:57:24;;;;;;;2.03;1.20;;;11.00;96.20;;;;;;5069886;28;20169;-38
2023/11/01 06:59:49;;;;;;;2.20;1.07;;;11.10;1.00;;;;;;5070551;28;20192;-38
2023/11/01 07:02:15;;;;;;;2.27;1.10;;;11.20;1.00;;;;;;5071056;28;20220;-40
2023/11/01 07:04:41;;;;;;;2.67;1.20;;;11.30;1.00;;;;;;5074158;28;20189;-38
2023/11/01 07:07:06;;;;;;;1.93;1.03;;;11.40;99.90;;;;;;5073510;28;20406;-38
2023/11/01 07:09:32;;;;;;;1.80;1.00;;;11.60;99.90;;;;;;5073861;28;20400;-38
2023/11/01 07:11:58;;;;;;;4.27;1.03;;;11.70;2.70;;;;;;5073395;28;20278;-39
2023/11/01 07:14:23;;;;;;;2.57;1.00;;;11.90;1.00;;;;;;5073105;28;20456;-37
2023/11/01 07:16:49;;;;;;;2.53;1.40;;;12.20;99.90;;;;;;5073715;28;20594;-38
2023/11/01 07:19:14;;;;;;;5.07;1.17;;;12.40;1.00;;;;;;5073305;28;20190;-38
2023/11/01 07:21:41;;;;;;;2.23;1.20;;;12.70;99.90;;;;;;5073008;28;20178;-39
2023/11/01 07:24:09;;;;;;;1.77;1.17;;;13.00;18.90;;;;;;5055066;28;20193;-38
2023/11/01 07:26:36;;;;;;;2.90;1.10;;;13.40;99.90;;;;;;5075379;28;20427;-38
2023/11/01 07:29:02;;;;;;;1.47;0.90;;;13.80;1.00;;;;;;5075463;28;20510;-38
2023/11/01 07:31:28;;;;;;;1.40;1.13;;;14.10;99.90;;;;;;5079262;28;20455;-38
2023/11/01 07:33:53;;;;;;;2.57;1.27;;;14.60;11.30;;;;;;5078829;28;20490;-38
2023/11/01 07:36:19;;;;;;;1.50;0.97;;;15.20;99.90;;;;;;5078022;28;20601;-38
2023/11/01 07:38:45;;;;;;;2.50;1.33;;;15.70;76.40;;;;;;5077607;28;20191;-38
2023/11/01 07:41:11;;;;;;;2.33;1.57;;;16.30;1.00;;;;;;5077680;28;20884;-37
2023/11/01 07:43:39;;;;;;;2.83;1.00;;;16.70;1.00;;;;;;5074710;28;20431;-39
2023/11/01 07:46:05;;;;;;;2.83;1.53;;;17.20;99.90;;;;;;5075045;28;20177;-41
2023/11/01 07:48:30;;;;;;;3.17;1.30;;;17.70;99.90;;;;;;5074789;28;20412;-38
2023/11/01 07:50:56;;;;;;;2.93;1.60;;;18.10;99.80;;;;;;5074707;28;20181;-39
2023/11/01 07:53:21;;;;;;;2.40;1.70;;;18.50;31.60;;;;;;5074085;28;20229;-40
2023/11/01 07:55:48;;;;;;;2.27;1.10;;;19.00;1.00;;;;;;5074734;28;20585;-40
2023/11/01 07:58:13;;;;;;;3.60;1.50;;;19.80;1.00;;;;;;5077213;28;20331;-47
2023/11/01 08:00:39;;;;;;;2.10;1.20;;;20.70;1.00;;;;;;5078136;28;20490;-41
2023/11/01 08:03:04;;;;;;;2.00;1.40;;;21.60;1.00;;;;;;5076742;28;20197;-39
2023/11/01 08:05:30;;;;;;;2.57;1.50;;;22.50;1.00;;;;;;5078777;28;20502;-41
2023/11/01 08:07:56;;;;;;;1.93;1.17;;;23.10;1.00;;;;;;5078133;28;20197;-39
2023/11/01 08:10:21;;;;;;;2.27;0.90;;;23.40;1.00;;;;;;5058361;28;20197;-41
2023/11/01 08:12:47;;;;;;;1.60;0.93;;;24.00;1.00;;;;;;5078171;28;20515;-39
2023/11/01 08:15:12;;;;;;;2.40;1.30;;;24.80;1.00;;;;;;5078980;28;20251;-41
2023/11/01 08:17:38;;;;;;;1.53;1.03;;;25.60;1.00;;;;;;5077875;28;20193;-41
2023/11/01 08:20:06;;;;;;;3.30;1.13;;;26.20;1.00;;;;;;5061218;28;20189;-39
2023/11/01 08:22:32;;;;;;;1.33;0.80;;;26.60;1.00;;;;;;5079066;28;20567;-43
2023/11/01 08:24:58;;;;;;;2.43;0.70;;;26.80;1.00;;;;;;5059640;28;20442;-39
2023/11/01 08:27:23;;;;;;;2.67;0.90;;;27.10;1.00;;;;;;5074975;28;20291;-40
2023/11/01 08:29:49;;;;;;;4.23;1.40;;;27.50;1.00;;;;;;5075218;28;20246;-37
2023/11/01 08:32:14;;;;;;;2.07;1.10;;;28.20;1.00;;;;;;5076393;28;20575;-40
2023/11/01 08:34:40;;;;;;;2.50;1.00;;;28.70;1.00;;;;;;5075772;28;20224;-38
2023/11/01 08:37:06;;;;;;;3.27;1.20;;;29.10;1.00;;;;;;5075119;28;20195;-44
2023/11/01 08:39:32;;;;;;;1.70;0.90;;;29.50;1.00;;;;;;5071977;28;20767;-39
2023/11/01 08:41:58;;;;;;;2.23;1.27;;;30.10;1.00;;;;;;5072898;28;20223;-40
2023/11/01 08:44:25;;;;;;;1.83;1.00;;;30.40;1.00;;;;;;5075092;28;20447;-42
2023/11/01 08:46:51;;;;;;;2.60;1.13;;;30.70;1.00;;;;;;5039593;28;20443;-40
2023/11/01 08:49:17;;;;;;;1.73;1.07;;;31.10;1.00;;;;;;5058761;28;20441;-38
2023/11/01 08:51:42;;;;;;;1.67;0.90;;;31.40;1.00;;;;;;5041411;28;20786;-37
2023/11/01 08:54:09;;;;;;;2.27;1.40;;;31.60;1.00;;;;;;5076967;28;20333;-38
2023/11/01 08:56:36;;;;;;;3.13;1.17;;;31.30;1.00;;;;;;5075302;28;20398;-36
2023/11/01 08:59:05;;;;;;;2.20;1.00;;;31.20;1.00;;;;;;5074356;28;20220;-37
2023/11/01 09:01:31;;;;;;;1.67;0.80;;;31.20;1.00;;;;;;5074792;28;20431;-38
2023/11/01 09:03:58;;;;;;;1.40;0.90;;;31.50;1.00;;;;;;5074879;28;20386;-38
2023/11/01 09:06:24;;;;;;;1.93;1.10;;;31.30;1.00;;;;;;5057829;28;20405;-39
2023/11/01 09:08:49;;;;;;;2.40;1.10;;;31.20;1.00;;;;;;5076177;28;20424;-37
2023/11/01 09:11:15;;;;;;;1.40;0.90;;;31.60;1.00;;;;;;5058399;28;20225;-38
2023/11/01 09:13:43;;;;;;;1.33;0.80;;;31.90;1.00;;;;;;5073591;28;20215;-39
2023/11/01 09:16:08;;;;;;;1.97;1.00;;;32.30;1.00;;;;;;5073470;28;20288;-38
2023/11/01 09:18:34;;;;;;;1.83;0.90;;;32.60;1.00;;;;;;5074320;28;20754;-38
2023/11/01 09:21:00;;;;;;;1.67;0.93;;;33.30;1.00;;;;;;5056709;28;20197;-40
2023/11/01 09:23:27;;;;;;;1.97;1.20;;;33.90;1.00;;;;;;5072320;28;20236;-39
2023/11/01 09:25:53;;;;;;;1.60;0.87;;;34.30;1.00;;;;;;5073019;28;20488;-37
2023/11/01 09:28:19;;;;;;;2.30;0.90;;;34.00;1.00;;;;;;5074464;28;20413;-38
2023/11/01 09:30:44;;;;;;;1.80;1.00;;;33.10;1.00;;;;;;5076122;28;20418;-37
2023/11/01 09:33:10;;;;;;;2.63;0.90;;;32.30;1.00;;;;;;5075880;28;20598;-41
2023/11/01 09:35:35;;;;;;;2.73;0.90;;;31.50;1.00;;;;;;5075642;28;20181;-38
2023/11/01 09:38:01;;;;;;;1.70;0.90;;;30.80;1.00;;;;;;5074495;28;20177;-48
2023/11/01 09:40:27;;;;;;;2.00;0.80;;;30.10;1.00;;;;;;5072990;28;20590;-38
2023/11/01 09:42:53;;;;;;;2.97;1.00;;;29.90;1.00;;;;;;5071735;28;20192;-37
2023/11/01 09:45:19;;;;;;;2.80;1.10;;;30.30;1.00;;;;;;5071727;28;20177;-42
2023/11/01 09:47:46;;;;;;;1.67;0.80;;;31.10;1.00;;;;;;5072394;28;20447;-40
2023/11/01 09:50:13;;;;;;;3.00;1.07;;;32.00;1.00;;;;;;5072503;28;20493;-39
2023/11/01 09:52:39;;;;;;;2.13;1.30;;;32.10;1.00;;;;;;5072244;28;20739;-40
2023/11/01 09:55:05;;;;;;;1.93;1.33;;;31.70;1.00;;;;;;5075077;28;20418;-39
2023/11/01 09:57:34;;;;;;;2.23;0.90;;;31.30;1.00;;;;;;5074706;28;20666;-40
2023/11/01 10:00:02;;;;;;;3.40;1.07;;;31.30;1.00;;;;;;5054920;28;20413;-41
2023/11/01 10:02:28;;;;;;;2.10;0.80;;;31.30;1.00;;;;;;5073075;28;20808;-40
2023/11/01 10:04:54;;;;;;;3.20;0.90;;;31.20;1.00;;;;;;5074660;28;20482;-40
2023/11/01 10:07:19;;;;;;;1.43;0.63;;;30.70;1.00;;;;;;5074163;28;20178;-41
2023/11/01 10:09:46;;;;;;;4.37;1.20;;;30.40;1.00;;;;;;5073376;28;20452;-39
2023/11/01 10:12:13;;;;;;;2.00;0.90;;;30.30;1.00;;;;;;5074097;28;20205;-43
2023/11/01 10:14:38;;;;;;;1.87;0.87;;;30.30;1.00;;;;;;5056862;28;20526;-42
2023/11/01 10:17:04;;;;;;;1.70;0.80;;;30.60;1.00;;;;;;5074028;28;20675;-44
2023/11/01 10:19:30;;;;;;;3.27;1.00;;;30.80;1.00;;;;;;5072270;28;20213;-43
2023/11/01 10:21:57;;;;;;;2.23;1.27;;;30.90;1.00;;;;;;5074178;28;20755;-42
2023/11/01 10:24:23;;;;;;;1.63;0.87;;;30.80;1.00;;;;;;5073892;28;20458;-40
2023/11/01 10:26:50;;;;;;;2.27;1.03;;;31.20;1.00;;;;;;5073347;28;20522;-40
2023/11/01 10:29:16;;;;;;;1.77;1.00;;;31.60;1.00;;;;;;5072275;28;20436;-39
2023/11/01 10:31:43;;;;;;;1.40;0.97;;;31.80;1.00;;;;;;5063347;28;20399;-41
2023/11/01 10:34:12;;;;;;;2.80;0.93;;;31.80;1.00;;;;;;5060838;28;20890;-39
2023/11/01 10:36:51;;;;;;;2.73;1.20;;;31.80;1.00;;;;;;5061901;28;20881;-43
2023/11/01 10:39:21;;;;;;;1.93;1.10;;;32.20;1.00;;;;;;5062865;28;20525;-39
2023/11/01 10:41:48;;;;;;;2.43;1.23;;;32.70;1.00;;;;;;5062273;28;20692;-40
2023/11/01 10:44:17;;;;;;;3.37;1.33;;;33.30;1.00;;;;;;5063713;28;20467;-40
2023/11/01 10:46:43;;;;;;;1.90;1.00;;;33.50;1.00;;;;;;5063370;28;20436;-51
2023/11/01 10:49:10;;;;;;;1.67;0.90;;;33.50;1.00;;;;;;5065069;28;20406;-40
2023/11/01 10:51:37;;;;;;;2.97;1.30;;;33.20;1.00;;;;;;5047830;28;20396;-39
2023/11/01 10:54:03;;;;;;;3.00;1.10;;;33.10;1.00;;;;;;5055530;28;20434;-40
2023/11/01 10:56:28;;;;;;;2.37;1.00;;;32.90;1.00;;;;;;5049978;28;20502;-40
2023/11/01 10:59:08;;;;;;;2.87;1.10;;;32.70;1.00;;;;;;5051702;28;20414;-40
2023/11/01 11:01:45;;;;;;;2.97;1.53;;;32.90;1.00;;;;;;5041665;28;20200;-39
2023/11/01 11:04:20;;;;;;;2.23;1.23;;;33.30;1.00;;;;;;5042941;28;20493;-39
2023/11/01 11:06:55;;;;;;;3.80;1.50;;;33.20;1.00;;;;;;5041602;28;20415;-39
2023/11/01 11:09:22;;;;;;;14.30;1.30;;;33.70;1.00;;;;;;5063793;28;20711;-41
2023/11/01 11:12:16;;;;;;;2.00;1.30;;;34.80;1.00;;;;;;5067479;28;20408;-41
2023/11/01 11:14:42;;;;;;;4.10;1.20;;;35.50;1.00;;;;;;5055277;28;20534;-40
2023/11/01 11:17:12;;;;;;;2.43;1.20;;;36.40;1.00;;;;;;5065231;28;20442;-41
2023/11/01 11:20:10;;;;;;;2.57;1.10;;;36.60;1.00;;;;;;5073914;28;20413;-43
2023/11/01 11:23:06;;;;;;;2.20;1.13;;;37.20;1.00;;;;;;5075516;28;20530;-40
2023/11/01 11:25:37;;;;;;;1.40;0.87;;;37.70;1.00;;;;;;5074940;28;20435;-42
2023/11/01 11:28:05;;;;;;;2.20;1.13;;;38.50;1.00;;;;;;5075083;28;20407;-45
2023/11/01 11:31:03;;;;;;;3.10;1.10;;;37.90;1.00;;;;;;5076422;28;20705;-39
2023/11/01 11:33:37;;;;;;;1.70;0.97;;;37.40;1.00;;;;;;5076115;28;20416;-41
2023/11/01 11:36:19;;;;;;;2.90;1.10;;;35.50;1.00;;;;;;5073372;28;20430;-40
2023/11/01 11:38:52;;;;;;;3.53;1.57;;;33.80;1.00;;;;;;5073248;28;20420;-40
2023/11/01 11:41:27;;;;;;;1.70;1.10;;;32.40;1.00;;;;;;5066708;28;20772;-41
2023/11/01 11:44:08;;;;;;;1.87;1.10;;;31.40;1.00;;;;;;5056164;28;20453;-38
2023/11/01 11:46:46;;;;;;;1.60;0.93;;;30.90;1.00;;;;;;5056239;28;21031;-42
2023/11/01 11:49:28;;;;;;;2.33;1.20;;;30.20;1.00;;;;;;5056358;28;20399;-40
2023/11/01 11:51:57;;;;;;;1.87;1.20;;;29.90;1.00;;;;;;5055939;28;20430;-40
2023/11/01 11:54:24;;;;;;;3.30;1.40;;;28.90;1.00;;;;;;5055086;28;20418;-40
2023/11/01 11:57:05;;;;;;;2.00;0.90;;;30.00;1.00;;;;;;5055558;28;20415;-40
2023/11/01 11:59:31;;;;;;;1.90;1.10;;;30.20;1.00;;;;;;5056290;28;20818;-38
2023/11/01 12:02:06;;;;;;;1.80;1.00;;;30.50;1.00;;;;;;5055631;28;20861;-39
2023/11/01 12:04:33;;;;;;;2.40;1.00;;;30.90;1.00;;;;;;5055273;28;20748;-39
2023/11/01 12:06:59;;;;;;;1.97;1.30;;;31.30;1.00;;;;;;5037679;28;20428;-39
2023/11/01 12:09:25;;;;;;;2.67;1.30;;;31.90;1.00;;;;;;5055898;28;20393;-39
2023/11/01 12:11:56;;;;;;;1.53;1.03;;;31.80;1.00;;;;;;5055975;28;20428;-40
2023/11/01 12:14:26;;;;;;;2.23;1.27;;;31.90;1.00;;;;;;5038133;28;20582;-41
2023/11/01 12:16:53;;;;;;;1.50;1.10;;;31.80;1.00;;;;;;5036330;28;20823;-39
2023/11/01 12:19:21;;;;;;;3.33;1.63;;;31.50;1.00;;;;;;5055977;28;20403;-41
2023/11/01 12:21:51;;;;;;;2.13;1.30;;;31.20;1.00;;;;;;5055362;28;20872;-40
2023/11/01 12:24:19;;;;;;;2.43;1.10;;;30.80;1.00;;;;;;5055093;28;20557;-39
2023/11/01 12:27:01;;;;;;;2.83;1.20;;;30.20;1.00;;;;;;5039435;28;20406;-38
2023/11/01 12:29:54;;;;;;;2.37;0.93;;;29.40;1.00;;;;;;5055144;28;20403;-40
2023/11/01 12:32:31;;;;;;;1.60;1.10;;;28.50;1.00;;;;;;5033304;28;20436;-39
2023/11/01 12:34:57;;;;;;;2.13;1.00;;;27.70;1.00;;;;;;5055049;28;20447;-40
2023/11/01 12:37:24;;;;;;;2.00;1.00;;;26.90;1.00;;;;;;5052107;28;20413;-38
2023/11/01 12:40:07;;;;;;;1.30;0.93;;;26.10;1.00;;;;;;5052685;28;20472;-38
2023/11/01 12:42:34;;;;;;;1.87;1.10;;;25.50;1.00;;;;;;5054907;28;20462;-40
2023/11/01 12:45:00;;;;;;;2.23;1.00;;;25.10;1.00;;;;;;5054789;28;20479;-40
2023/11/01 12:47:31;;;;;;;1.80;1.00;;;24.80;1.00;;;;;;5054181;28;20436;-39
2023/11/01 12:49:58;;;;;;;1.33;0.80;;;24.50;1.00;;;;;;5055844;28;20806;-39
2023/11/01 12:52:24;;;;;;;1.57;0.97;;;24.30;1.00;;;;;;5056807;28;20466;-40
2023/11/01 12:54:50;;;;;;;1.60;1.03;;;23.90;1.00;;;;;;5038333;28;20440;-38
2023/11/01 12:57:16;;;;;;;2.80;1.10;;;23.60;1.00;;;;;;5052625;28;20876;-41
2023/11/01 12:59:42;;;;;;;2.00;1.00;;;23.40;1.00;;;;;;5053632;28;20619;-39